sensor_id;sensor_type;location;lat;lon;timestamp;P1;durP1;ratioP1;P2;durP2;ratioP2
4732;SDS011;2380;53.668;10.008;2022-12-29T00:00:18;6.77;;;2.63;;
4732;SDS011;2380;53.668;10.008;2022-12-29T00:02:47;6.13;;;4.33;;
4732;SDS011;2380;53.668;10.008;2022-12-29T00:05:17;4.30;;;2.10;;
4732;SDS011;2380;53.668;10.008;2022-12-29T00:07:47;8.93;;;4.30;;
4732;SDS011;2380;53.668;10.008;2022-12-29T00:10:16;6.00;;;4.47;;
4732;SDS011;2380;53.668;10.008;2022-12-29T00:12:46;6.00;;;3.30;;
4732;SDS011;2380;53.668;10.008;2022-12-29T00:15:30;5.20;;;4.00;;
4732;SDS011;2380;53.668;10.008;2022-12-29T00:18:06;4.03;;;2.93;;
4732;SDS011;2380;53.668;10.008;2022-12-29T00:20:36;9.13;;;4.33;;
4732;SDS011;2380;53.668;10.008;2022-12-29T00:23:19;8.40;;;4.33;;
4732;SDS011;2380;53.668;10.008;2022-12-29T00:26:02;9.17;;;5.57;;
4732;SDS011;2380;53.668;10.008;2022-12-29T00:28:44;7.50;;;3.80;;
4732;SDS011;2380;53.668;10.008;2022-12-29T00:31:29;5.77;;;3.40;;
4732;SDS011;2380;53.668;10.008;2022-12-29T00:34:11;4.97;;;3.50;;
4732;SDS011;2380;53.668;10.008;2022-12-29T00:36:53;5.13;;;4.07;;
4732;SDS011;2380;53.668;10.008;2022-12-29T00:39:22;5.80;;;4.30;;
4732;SDS011;2380;53.668;10.008;2022-12-29T00:42:04;6.20;;;5.10;;
4732;SDS011;2380;53.668;10.008;2022-12-29T00:44:47;4.60;;;3.90;;
4732;SDS011;2380;53.668;10.008;2022-12-29T00:47:19;6.37;;;3.90;;
4732;SDS011;2380;53.668;10.008;2022-12-29T00:49:48;6.43;;;4.70;;
4732;SDS011;2380;53.668;10.008;2022-12-29T00:52:15;5.90;;;4.20;;
4732;SDS011;2380;53.668;10.008;2022-12-29T00:54:45;8.83;;;4.70;;
4732;SDS011;2380;53.668;10.008;2022-12-29T00:57:14;5.77;;;4.40;;
4732;SDS011;2380;53.668;10.008;2022-12-29T00:59:44;2.57;;;1.77;;
4732;SDS011;2380;53.668;10.008;2022-12-29T01:02:13;6.60;;;4.23;;
4732;SDS011;2380;53.668;10.008;2022-12-29T01:04:46;9.17;;;4.53;;
4732;SDS011;2380;53.668;10.008;2022-12-29T01:07:15;6.07;;;4.07;;
4732;SDS011;2380;53.668;10.008;2022-12-29T01:09:45;7.00;;;4.70;;
4732;SDS011;2380;53.668;10.008;2022-12-29T01:12:27;5.47;;;4.33;;
4732;SDS011;2380;53.668;10.008;2022-12-29T01:15:12;6.93;;;4.43;;
4732;SDS011;2380;53.668;10.008;2022-12-29T01:17:43;6.83;;;5.17;;
4732;SDS011;2380;53.668;10.008;2022-12-29T01:20:15;5.80;;;4.30;;
4732;SDS011;2380;53.668;10.008;2022-12-29T01:22:45;6.17;;;4.63;;
4732;SDS011;2380;53.668;10.008;2022-12-29T01:25:14;6.33;;;4.13;;
4732;SDS011;2380;53.668;10.008;2022-12-29T01:27:44;3.73;;;2.30;;
4732;SDS011;2380;53.668;10.008;2022-12-29T01:30:13;5.53;;;3.80;;
4732;SDS011;2380;53.668;10.008;2022-12-29T01:32:43;5.77;;;3.77;;
4732;SDS011;2380;53.668;10.008;2022-12-29T01:35:15;4.90;;;3.67;;
4732;SDS011;2380;53.668;10.008;2022-12-29T01:37:45;5.77;;;4.47;;
4732;SDS011;2380;53.668;10.008;2022-12-29T01:40:14;7.23;;;4.97;;
4732;SDS011;2380;53.668;10.008;2022-12-29T01:42:44;5.27;;;2.73;;
4732;SDS011;2380;53.668;10.008;2022-12-29T01:45:14;6.77;;;4.80;;
4732;SDS011;2380;53.668;10.008;2022-12-29T01:47:44;9.57;;;4.90;;
4732;SDS011;2380;53.668;10.008;2022-12-29T01:50:18;7.57;;;4.67;;
4732;SDS011;2380;53.668;10.008;2022-12-29T01:52:50;12.63;;;6.00;;
4732;SDS011;2380;53.668;10.008;2022-12-29T01:55:22;8.37;;;4.80;;
4732;SDS011;2380;53.668;10.008;2022-12-29T01:57:52;7.47;;;5.13;;
4732;SDS011;2380;53.668;10.008;2022-12-29T02:00:22;5.97;;;3.53;;
4732;SDS011;2380;53.668;10.008;2022-12-29T02:02:52;5.10;;;3.63;;
4732;SDS011;2380;53.668;10.008;2022-12-29T02:05:27;8.20;;;4.33;;
4732;SDS011;2380;53.668;10.008;2022-12-29T02:07:58;5.17;;;3.50;;
4732;SDS011;2380;53.668;10.008;2022-12-29T02:10:30;7.30;;;4.90;;
4732;SDS011;2380;53.668;10.008;2022-12-29T02:13:01;5.00;;;4.03;;
4732;SDS011;2380;53.668;10.008;2022-12-29T02:15:35;4.53;;;3.63;;
4732;SDS011;2380;53.668;10.008;2022-12-29T02:18:18;7.63;;;4.50;;
4732;SDS011;2380;53.668;10.008;2022-12-29T02:21:06;6.70;;;4.60;;
4732;SDS011;2380;53.668;10.008;2022-12-29T02:24:11;9.40;;;4.90;;
4732;SDS011;2380;53.668;10.008;2022-12-29T02:30:03;8.60;;;6.10;;
4732;SDS011;2380;53.668;10.008;2022-12-29T02:32:40;6.37;;;4.50;;
4732;SDS011;2380;53.668;10.008;2022-12-29T02:35:16;15.77;;;6.40;;
4732;SDS011;2380;53.668;10.008;2022-12-29T02:37:55;8.33;;;5.70;;
4732;SDS011;2380;53.668;10.008;2022-12-29T02:40:30;7.60;;;5.33;;
4732;SDS011;2380;53.668;10.008;2022-12-29T02:43:06;6.60;;;5.10;;
4732;SDS011;2380;53.668;10.008;2022-12-29T02:45:44;5.00;;;4.20;;
4732;SDS011;2380;53.668;10.008;2022-12-29T02:48:20;6.53;;;4.60;;
4732;SDS011;2380;53.668;10.008;2022-12-29T02:50:55;6.83;;;5.03;;
4732;SDS011;2380;53.668;10.008;2022-12-29T02:53:28;5.83;;;4.50;;
4732;SDS011;2380;53.668;10.008;2022-12-29T02:56:10;5.87;;;5.13;;
4732;SDS011;2380;53.668;10.008;2022-12-29T02:58:40;7.63;;;5.20;;
4732;SDS011;2380;53.668;10.008;2022-12-29T03:01:14;10.23;;;5.57;;
4732;SDS011;2380;53.668;10.008;2022-12-29T03:03:58;6.00;;;5.23;;
4732;SDS011;2380;53.668;10.008;2022-12-29T03:06:48;7.70;;;5.23;;
4732;SDS011;2380;53.668;10.008;2022-12-29T03:09:26;7.30;;;5.20;;
4732;SDS011;2380;53.668;10.008;2022-12-29T03:12:03;5.97;;;5.37;;
4732;SDS011;2380;53.668;10.008;2022-12-29T03:14:55;5.93;;;4.97;;
4732;SDS011;2380;53.668;10.008;2022-12-29T03:17:43;5.03;;;4.53;;
4732;SDS011;2380;53.668;10.008;2022-12-29T03:20:20;8.10;;;4.80;;
4732;SDS011;2380;53.668;10.008;2022-12-29T03:22:53;5.57;;;4.43;;
4732;SDS011;2380;53.668;10.008;2022-12-29T03:25:28;5.90;;;4.53;;
4732;SDS011;2380;53.668;10.008;2022-12-29T03:28:01;5.60;;;4.40;;
4732;SDS011;2380;53.668;10.008;2022-12-29T03:30:33;6.40;;;4.83;;
4732;SDS011;2380;53.668;10.008;2022-12-29T03:33:04;5.70;;;4.20;;
4732;SDS011;2380;53.668;10.008;2022-12-29T03:35:40;7.10;;;4.63;;
4732;SDS011;2380;53.668;10.008;2022-12-29T03:38:12;7.83;;;5.40;;
4732;SDS011;2380;53.668;10.008;2022-12-29T03:40:44;5.57;;;4.33;;
4732;SDS011;2380;53.668;10.008;2022-12-29T03:43:16;5.93;;;4.27;;
4732;SDS011;2380;53.668;10.008;2022-12-29T03:45:46;4.80;;;4.30;;
4732;SDS011;2380;53.668;10.008;2022-12-29T03:48:16;5.50;;;4.23;;
4732;SDS011;2380;53.668;10.008;2022-12-29T03:50:48;4.70;;;3.80;;
4732;SDS011;2380;53.668;10.008;2022-12-29T03:53:17;5.27;;;3.90;;
4732;SDS011;2380;53.668;10.008;2022-12-29T03:55:47;9.47;;;4.47;;
4732;SDS011;2380;53.668;10.008;2022-12-29T03:58:16;5.03;;;3.90;;
4732;SDS011;2380;53.668;10.008;2022-12-29T04:00:46;5.70;;;4.20;;
4732;SDS011;2380;53.668;10.008;2022-12-29T04:03:15;8.50;;;3.77;;
4732;SDS011;2380;53.668;10.008;2022-12-29T04:05:47;5.30;;;4.00;;
4732;SDS011;2380;53.668;10.008;2022-12-29T04:08:17;6.10;;;4.13;;
4732;SDS011;2380;53.668;10.008;2022-12-29T04:10:47;5.10;;;3.87;;
4732;SDS011;2380;53.668;10.008;2022-12-29T04:13:17;4.90;;;3.90;;
4732;SDS011;2380;53.668;10.008;2022-12-29T04:15:47;6.27;;;3.80;;
4732;SDS011;2380;53.668;10.008;2022-12-29T04:18:16;4.63;;;3.73;;
4732;SDS011;2380;53.668;10.008;2022-12-29T04:20:48;4.70;;;3.77;;
4732;SDS011;2380;53.668;10.008;2022-12-29T04:23:30;4.90;;;3.80;;
4732;SDS011;2380;53.668;10.008;2022-12-29T04:26:01;4.90;;;3.17;;
4732;SDS011;2380;53.668;10.008;2022-12-29T04:28:30;4.03;;;3.63;;
4732;SDS011;2380;53.668;10.008;2022-12-29T04:31:00;4.00;;;3.23;;
4732;SDS011;2380;53.668;10.008;2022-12-29T04:33:30;3.83;;;3.40;;
4732;SDS011;2380;53.668;10.008;2022-12-29T04:36:02;3.40;;;3.07;;
4732;SDS011;2380;53.668;10.008;2022-12-29T04:38:32;3.93;;;3.20;;
4732;SDS011;2380;53.668;10.008;2022-12-29T04:41:02;5.20;;;3.30;;
4732;SDS011;2380;53.668;10.008;2022-12-29T04:43:32;3.40;;;2.90;;
4732;SDS011;2380;53.668;10.008;2022-12-29T04:46:01;3.97;;;2.70;;
4732;SDS011;2380;53.668;10.008;2022-12-29T04:48:31;2.80;;;2.50;;
4732;SDS011;2380;53.668;10.008;2022-12-29T04:51:03;4.07;;;2.47;;
4732;SDS011;2380;53.668;10.008;2022-12-29T04:53:32;3.93;;;2.63;;
4732;SDS011;2380;53.668;10.008;2022-12-29T04:56:02;3.67;;;2.13;;
4732;SDS011;2380;53.668;10.008;2022-12-29T04:58:31;4.00;;;3.03;;
4732;SDS011;2380;53.668;10.008;2022-12-29T05:01:01;4.80;;;3.03;;
4732;SDS011;2380;53.668;10.008;2022-12-29T05:03:30;3.47;;;3.00;;
4732;SDS011;2380;53.668;10.008;2022-12-29T05:06:02;3.10;;;2.43;;
4732;SDS011;2380;53.668;10.008;2022-12-29T05:08:32;4.20;;;2.10;;
4732;SDS011;2380;53.668;10.008;2022-12-29T05:11:02;4.00;;;3.23;;
4732;SDS011;2380;53.668;10.008;2022-12-29T05:13:31;3.77;;;2.73;;
4732;SDS011;2380;53.668;10.008;2022-12-29T05:16:01;3.37;;;2.70;;
4732;SDS011;2380;53.668;10.008;2022-12-29T05:18:30;4.90;;;2.60;;
4732;SDS011;2380;53.668;10.008;2022-12-29T05:20:59;4.20;;;2.50;;
4732;SDS011;2380;53.668;10.008;2022-12-29T05:23:32;2.67;;;2.20;;
4732;SDS011;2380;53.668;10.008;2022-12-29T05:26:01;2.37;;;1.90;;
4732;SDS011;2380;53.668;10.008;2022-12-29T05:28:30;4.23;;;2.07;;
4732;SDS011;2380;53.668;10.008;2022-12-29T05:31:00;3.20;;;2.10;;
4732;SDS011;2380;53.668;10.008;2022-12-29T05:33:29;2.83;;;1.50;;
4732;SDS011;2380;53.668;10.008;2022-12-29T05:36:06;2.63;;;1.93;;
4732;SDS011;2380;53.668;10.008;2022-12-29T05:38:36;2.43;;;1.77;;
4732;SDS011;2380;53.668;10.008;2022-12-29T05:41:06;2.07;;;1.50;;
4732;SDS011;2380;53.668;10.008;2022-12-29T05:43:35;4.60;;;3.20;;
4732;SDS011;2380;53.668;10.008;2022-12-29T05:46:05;4.00;;;2.87;;
4732;SDS011;2380;53.668;10.008;2022-12-29T05:48:34;1.90;;;1.53;;
4732;SDS011;2380;53.668;10.008;2022-12-29T05:51:06;3.50;;;1.97;;
4732;SDS011;2380;53.668;10.008;2022-12-29T05:53:36;3.77;;;3.00;;
4732;SDS011;2380;53.668;10.008;2022-12-29T05:56:06;4.00;;;1.90;;
4732;SDS011;2380;53.668;10.008;2022-12-29T05:58:35;3.80;;;2.93;;
4732;SDS011;2380;53.668;10.008;2022-12-29T06:01:05;6.37;;;4.23;;
4732;SDS011;2380;53.668;10.008;2022-12-29T06:03:34;2.30;;;2.10;;
4732;SDS011;2380;53.668;10.008;2022-12-29T06:06:13;4.77;;;2.43;;
4732;SDS011;2380;53.668;10.008;2022-12-29T06:08:43;5.80;;;2.30;;
4732;SDS011;2380;53.668;10.008;2022-12-29T06:11:12;2.03;;;1.17;;
4732;SDS011;2380;53.668;10.008;2022-12-29T06:13:42;3.17;;;2.10;;
4732;SDS011;2380;53.668;10.008;2022-12-29T06:16:11;2.40;;;2.20;;
4732;SDS011;2380;53.668;10.008;2022-12-29T06:18:41;2.40;;;1.93;;
4732;SDS011;2380;53.668;10.008;2022-12-29T06:21:10;4.57;;;2.43;;
4732;SDS011;2380;53.668;10.008;2022-12-29T06:23:43;4.57;;;2.40;;
4732;SDS011;2380;53.668;10.008;2022-12-29T06:26:12;3.07;;;1.93;;
4732;SDS011;2380;53.668;10.008;2022-12-29T06:28:41;4.17;;;1.60;;
4732;SDS011;2380;53.668;10.008;2022-12-29T06:31:11;1.87;;;1.30;;
4732;SDS011;2380;53.668;10.008;2022-12-29T06:33:40;3.93;;;2.27;;
4732;SDS011;2380;53.668;10.008;2022-12-29T06:36:17;3.00;;;1.97;;
4732;SDS011;2380;53.668;10.008;2022-12-29T06:38:47;1.93;;;1.47;;
4732;SDS011;2380;53.668;10.008;2022-12-29T06:41:18;2.13;;;1.60;;
4732;SDS011;2380;53.668;10.008;2022-12-29T06:43:57;2.87;;;1.87;;
4732;SDS011;2380;53.668;10.008;2022-12-29T06:46:26;2.00;;;1.80;;
4732;SDS011;2380;53.668;10.008;2022-12-29T06:48:55;2.47;;;1.37;;
4732;SDS011;2380;53.668;10.008;2022-12-29T06:51:27;2.03;;;1.83;;
4732;SDS011;2380;53.668;10.008;2022-12-29T06:53:57;4.33;;;1.70;;
4732;SDS011;2380;53.668;10.008;2022-12-29T06:56:26;1.60;;;1.10;;
4732;SDS011;2380;53.668;10.008;2022-12-29T06:58:56;5.40;;;2.00;;
4732;SDS011;2380;53.668;10.008;2022-12-29T07:01:26;2.10;;;1.90;;
4732;SDS011;2380;53.668;10.008;2022-12-29T07:03:56;3.93;;;1.90;;
4732;SDS011;2380;53.668;10.008;2022-12-29T07:06:28;1.90;;;1.60;;
4732;SDS011;2380;53.668;10.008;2022-12-29T07:08:57;3.13;;;1.90;;
4732;SDS011;2380;53.668;10.008;2022-12-29T07:11:27;4.30;;;2.53;;
4732;SDS011;2380;53.668;10.008;2022-12-29T07:13:56;3.07;;;1.67;;
4732;SDS011;2380;53.668;10.008;2022-12-29T07:16:30;2.83;;;1.97;;
4732;SDS011;2380;53.668;10.008;2022-12-29T07:19:00;1.97;;;1.60;;
4732;SDS011;2380;53.668;10.008;2022-12-29T07:21:33;2.33;;;1.43;;
4732;SDS011;2380;53.668;10.008;2022-12-29T07:24:02;2.00;;;1.80;;
4732;SDS011;2380;53.668;10.008;2022-12-29T07:26:32;2.77;;;1.90;;
4732;SDS011;2380;53.668;10.008;2022-12-29T07:29:02;2.93;;;1.90;;
4732;SDS011;2380;53.668;10.008;2022-12-29T07:31:32;2.70;;;2.20;;
4732;SDS011;2380;53.668;10.008;2022-12-29T07:34:02;3.03;;;2.03;;
4732;SDS011;2380;53.668;10.008;2022-12-29T07:36:34;2.00;;;1.70;;
4732;SDS011;2380;53.668;10.008;2022-12-29T07:39:03;3.40;;;2.00;;
4732;SDS011;2380;53.668;10.008;2022-12-29T07:41:33;2.67;;;1.93;;
4732;SDS011;2380;53.668;10.008;2022-12-29T07:44:02;3.87;;;2.17;;
4732;SDS011;2380;53.668;10.008;2022-12-29T07:46:32;5.07;;;2.40;;
4732;SDS011;2380;53.668;10.008;2022-12-29T07:49:22;2.40;;;2.20;;
4732;SDS011;2380;53.668;10.008;2022-12-29T07:51:54;2.53;;;1.80;;
4732;SDS011;2380;53.668;10.008;2022-12-29T07:54:24;6.63;;;2.03;;
4732;SDS011;2380;53.668;10.008;2022-12-29T07:56:53;3.27;;;1.60;;
4732;SDS011;2380;53.668;10.008;2022-12-29T07:59:23;3.93;;;1.93;;
4732;SDS011;2380;53.668;10.008;2022-12-29T08:01:53;3.27;;;1.70;;
4732;SDS011;2380;53.668;10.008;2022-12-29T08:04:22;3.90;;;1.77;;
4732;SDS011;2380;53.668;10.008;2022-12-29T08:06:54;2.90;;;1.90;;
4732;SDS011;2380;53.668;10.008;2022-12-29T08:09:24;3.20;;;1.77;;
4732;SDS011;2380;53.668;10.008;2022-12-29T08:11:53;2.10;;;1.60;;
4732;SDS011;2380;53.668;10.008;2022-12-29T08:14:23;1.70;;;1.37;;
4732;SDS011;2380;53.668;10.008;2022-12-29T08:16:52;2.17;;;1.70;;
4732;SDS011;2380;53.668;10.008;2022-12-29T08:19:22;2.80;;;1.83;;
4732;SDS011;2380;53.668;10.008;2022-12-29T08:21:54;4.00;;;1.70;;
4732;SDS011;2380;53.668;10.008;2022-12-29T08:24:24;3.80;;;2.30;;
4732;SDS011;2380;53.668;10.008;2022-12-29T08:26:53;2.90;;;1.00;;
4732;SDS011;2380;53.668;10.008;2022-12-29T08:29:23;3.43;;;1.80;;
4732;SDS011;2380;53.668;10.008;2022-12-29T08:31:52;2.90;;;1.20;;
4732;SDS011;2380;53.668;10.008;2022-12-29T08:34:22;2.00;;;1.20;;
4732;SDS011;2380;53.668;10.008;2022-12-29T08:36:51;3.70;;;1.37;;
4732;SDS011;2380;53.668;10.008;2022-12-29T08:39:23;3.20;;;1.47;;
4732;SDS011;2380;53.668;10.008;2022-12-29T08:41:53;6.43;;;2.17;;
4732;SDS011;2380;53.668;10.008;2022-12-29T08:44:23;4.13;;;1.00;;
4732;SDS011;2380;53.668;10.008;2022-12-29T08:46:52;3.23;;;1.50;;
4732;SDS011;2380;53.668;10.008;2022-12-29T08:49:22;5.50;;;1.57;;
4732;SDS011;2380;53.668;10.008;2022-12-29T08:51:51;1.50;;;0.80;;
4732;SDS011;2380;53.668;10.008;2022-12-29T08:54:23;3.07;;;1.93;;
4732;SDS011;2380;53.668;10.008;2022-12-29T08:56:53;1.90;;;1.50;;
4732;SDS011;2380;53.668;10.008;2022-12-29T08:59:23;3.70;;;2.23;;
4732;SDS011;2380;53.668;10.008;2022-12-29T09:01:52;2.47;;;1.53;;
4732;SDS011;2380;53.668;10.008;2022-12-29T09:04:21;2.30;;;1.20;;
4732;SDS011;2380;53.668;10.008;2022-12-29T09:06:53;2.47;;;1.00;;
4732;SDS011;2380;53.668;10.008;2022-12-29T09:09:25;2.17;;;1.00;;
4732;SDS011;2380;53.668;10.008;2022-12-29T09:11:55;3.07;;;1.20;;
4732;SDS011;2380;53.668;10.008;2022-12-29T09:14:24;4.07;;;1.53;;
4732;SDS011;2380;53.668;10.008;2022-12-29T09:16:54;2.07;;;0.93;;
4732;SDS011;2380;53.668;10.008;2022-12-29T09:19:36;2.77;;;0.83;;
4732;SDS011;2380;53.668;10.008;2022-12-29T09:22:05;2.93;;;1.40;;
4732;SDS011;2380;53.668;10.008;2022-12-29T09:24:37;1.80;;;0.80;;
4732;SDS011;2380;53.668;10.008;2022-12-29T09:27:07;3.60;;;1.07;;
4732;SDS011;2380;53.668;10.008;2022-12-29T09:29:36;2.00;;;0.97;;
4732;SDS011;2380;53.668;10.008;2022-12-29T09:32:06;3.47;;;1.27;;
4732;SDS011;2380;53.668;10.008;2022-12-29T09:34:43;4.90;;;1.07;;
4732;SDS011;2380;53.668;10.008;2022-12-29T09:37:13;2.73;;;1.20;;
4732;SDS011;2380;53.668;10.008;2022-12-29T09:39:45;2.47;;;1.10;;
4732;SDS011;2380;53.668;10.008;2022-12-29T09:42:22;1.97;;;0.80;;
4732;SDS011;2380;53.668;10.008;2022-12-29T09:44:56;2.03;;;0.80;;
4732;SDS011;2380;53.668;10.008;2022-12-29T09:47:32;1.87;;;0.70;;
4732;SDS011;2380;53.668;10.008;2022-12-29T09:50:02;4.03;;;0.90;;
4732;SDS011;2380;53.668;10.008;2022-12-29T09:52:35;3.00;;;1.47;;
4732;SDS011;2380;53.668;10.008;2022-12-29T09:55:12;3.20;;;1.13;;
4732;SDS011;2380;53.668;10.008;2022-12-29T09:57:44;2.60;;;0.80;;
4732;SDS011;2380;53.668;10.008;2022-12-29T10:00:16;3.50;;;0.80;;
4732;SDS011;2380;53.668;10.008;2022-12-29T10:02:48;9.17;;;1.43;;
4732;SDS011;2380;53.668;10.008;2022-12-29T10:05:23;4.50;;;0.90;;
4732;SDS011;2380;53.668;10.008;2022-12-29T10:08:00;2.53;;;0.90;;
4732;SDS011;2380;53.668;10.008;2022-12-29T10:10:46;2.23;;;0.93;;
4732;SDS011;2380;53.668;10.008;2022-12-29T10:13:23;2.10;;;0.93;;
4732;SDS011;2380;53.668;10.008;2022-12-29T10:16:00;5.10;;;1.33;;
4732;SDS011;2380;53.668;10.008;2022-12-29T10:18:43;3.93;;;1.30;;
4732;SDS011;2380;53.668;10.008;2022-12-29T10:21:30;3.10;;;0.87;;
4732;SDS011;2380;53.668;10.008;2022-12-29T10:24:07;2.83;;;1.20;;
4732;SDS011;2380;53.668;10.008;2022-12-29T10:26:42;8.50;;;1.00;;
4732;SDS011;2380;53.668;10.008;2022-12-29T10:29:14;3.10;;;0.90;;
4732;SDS011;2380;53.668;10.008;2022-12-29T10:31:45;4.30;;;0.90;;
4732;SDS011;2380;53.668;10.008;2022-12-29T10:34:19;19.23;;;7.33;;
4732;SDS011;2380;53.668;10.008;2022-12-29T10:36:52;18.90;;;3.40;;
4732;SDS011;2380;53.668;10.008;2022-12-29T10:39:26;11.50;;;3.57;;
4732;SDS011;2380;53.668;10.008;2022-12-29T10:42:07;14.57;;;4.80;;
4732;SDS011;2380;53.668;10.008;2022-12-29T10:44:40;6.80;;;2.93;;
4732;SDS011;2380;53.668;10.008;2022-12-29T10:47:11;9.00;;;3.30;;
4732;SDS011;2380;53.668;10.008;2022-12-29T10:49:42;14.83;;;6.23;;
4732;SDS011;2380;53.668;10.008;2022-12-29T10:52:14;11.90;;;4.67;;
4732;SDS011;2380;53.668;10.008;2022-12-29T10:54:46;10.43;;;3.47;;
4732;SDS011;2380;53.668;10.008;2022-12-29T10:57:24;9.27;;;2.80;;
4732;SDS011;2380;53.668;10.008;2022-12-29T10:59:55;6.97;;;2.00;;
4732;SDS011;2380;53.668;10.008;2022-12-29T11:05:23;2.90;;;0.90;;
4732;SDS011;2380;53.668;10.008;2022-12-29T11:07:58;8.17;;;1.73;;
4732;SDS011;2380;53.668;10.008;2022-12-29T11:10:30;7.40;;;2.17;;
4732;SDS011;2380;53.668;10.008;2022-12-29T11:13:13;4.03;;;2.07;;
4732;SDS011;2380;53.668;10.008;2022-12-29T11:15:45;6.07;;;2.07;;
4732;SDS011;2380;53.668;10.008;2022-12-29T11:18:19;7.83;;;2.80;;
4732;SDS011;2380;53.668;10.008;2022-12-29T11:20:51;10.30;;;3.50;;
4732;SDS011;2380;53.668;10.008;2022-12-29T11:23:22;4.20;;;1.80;;
4732;SDS011;2380;53.668;10.008;2022-12-29T11:29:03;8.83;;;2.23;;
4732;SDS011;2380;53.668;10.008;2022-12-29T11:31:39;11.67;;;3.30;;
4732;SDS011;2380;53.668;10.008;2022-12-29T11:34:16;10.00;;;2.43;;
4732;SDS011;2380;53.668;10.008;2022-12-29T11:36:46;12.87;;;3.37;;
4732;SDS011;2380;53.668;10.008;2022-12-29T11:39:24;3.50;;;1.20;;
4732;SDS011;2380;53.668;10.008;2022-12-29T11:41:57;7.73;;;1.53;;
4732;SDS011;2380;53.668;10.008;2022-12-29T11:44:29;6.77;;;1.33;;
4732;SDS011;2380;53.668;10.008;2022-12-29T11:47:05;4.40;;;1.20;;
4732;SDS011;2380;53.668;10.008;2022-12-29T11:49:38;6.13;;;1.07;;
4732;SDS011;2380;53.668;10.008;2022-12-29T11:52:08;10.03;;;2.70;;
4732;SDS011;2380;53.668;10.008;2022-12-29T11:54:37;5.50;;;0.90;;
4732;SDS011;2380;53.668;10.008;2022-12-29T11:57:10;2.37;;;0.60;;
4732;SDS011;2380;53.668;10.008;2022-12-29T11:59:48;3.33;;;0.70;;
4732;SDS011;2380;53.668;10.008;2022-12-29T12:02:31;3.63;;;0.70;;
4732;SDS011;2380;53.668;10.008;2022-12-29T12:05:10;3.80;;;0.77;;
4732;SDS011;2380;53.668;10.008;2022-12-29T12:07:43;5.57;;;1.67;;
4732;SDS011;2380;53.668;10.008;2022-12-29T12:10:18;6.80;;;0.97;;
4732;SDS011;2380;53.668;10.008;2022-12-29T12:12:53;1.50;;;0.60;;
4732;SDS011;2380;53.668;10.008;2022-12-29T12:15:31;3.47;;;0.57;;
4732;SDS011;2380;53.668;10.008;2022-12-29T12:18:13;3.60;;;0.97;;
4732;SDS011;2380;53.668;10.008;2022-12-29T12:20:48;3.57;;;1.23;;
4732;SDS011;2380;53.668;10.008;2022-12-29T12:23:22;4.07;;;0.50;;
4732;SDS011;2380;53.668;10.008;2022-12-29T12:25:57;1.60;;;0.50;;
4732;SDS011;2380;53.668;10.008;2022-12-29T12:28:33;5.70;;;1.60;;
4732;SDS011;2380;53.668;10.008;2022-12-29T12:31:13;2.87;;;1.10;;
4732;SDS011;2380;53.668;10.008;2022-12-29T12:33:47;2.17;;;0.60;;
4732;SDS011;2380;53.668;10.008;2022-12-29T12:36:45;2.80;;;0.80;;
4732;SDS011;2380;53.668;10.008;2022-12-29T12:39:25;1.93;;;0.50;;
4732;SDS011;2380;53.668;10.008;2022-12-29T12:41:59;3.07;;;0.60;;
4732;SDS011;2380;53.668;10.008;2022-12-29T12:44:35;6.00;;;1.03;;
4732;SDS011;2380;53.668;10.008;2022-12-29T12:47:21;8.97;;;1.37;;
4732;SDS011;2380;53.668;10.008;2022-12-29T12:50:07;3.90;;;1.20;;
4732;SDS011;2380;53.668;10.008;2022-12-29T12:52:49;1.77;;;0.60;;
4732;SDS011;2380;53.668;10.008;2022-12-29T12:55:33;8.30;;;1.50;;
4732;SDS011;2380;53.668;10.008;2022-12-29T12:58:11;3.03;;;1.30;;
4732;SDS011;2380;53.668;10.008;2022-12-29T13:00:49;5.30;;;1.27;;
4732;SDS011;2380;53.668;10.008;2022-12-29T13:03:41;3.87;;;1.00;;
4732;SDS011;2380;53.668;10.008;2022-12-29T13:06:18;4.17;;;1.03;;
4732;SDS011;2380;53.668;10.008;2022-12-29T13:09:01;4.93;;;1.30;;
4732;SDS011;2380;53.668;10.008;2022-12-29T13:11:46;5.67;;;0.80;;
4732;SDS011;2380;53.668;10.008;2022-12-29T13:14:27;6.17;;;1.30;;
4732;SDS011;2380;53.668;10.008;2022-12-29T13:17:03;6.87;;;1.20;;
4732;SDS011;2380;53.668;10.008;2022-12-29T13:19:40;7.33;;;1.40;;
4732;SDS011;2380;53.668;10.008;2022-12-29T13:22:13;3.70;;;1.00;;
4732;SDS011;2380;53.668;10.008;2022-12-29T13:24:49;2.77;;;0.70;;
4732;SDS011;2380;53.668;10.008;2022-12-29T13:27:23;7.27;;;1.10;;
4732;SDS011;2380;53.668;10.008;2022-12-29T13:30:03;9.83;;;1.07;;
4732;SDS011;2380;53.668;10.008;2022-12-29T13:32:37;3.00;;;1.00;;
4732;SDS011;2380;53.668;10.008;2022-12-29T13:35:21;3.80;;;1.40;;
4732;SDS011;2380;53.668;10.008;2022-12-29T13:37:56;6.60;;;1.10;;
4732;SDS011;2380;53.668;10.008;2022-12-29T13:40:31;3.10;;;0.90;;
4732;SDS011;2380;53.668;10.008;2022-12-29T13:43:05;2.70;;;0.90;;
4732;SDS011;2380;53.668;10.008;2022-12-29T13:45:34;12.30;;;1.77;;
4732;SDS011;2380;53.668;10.008;2022-12-29T13:48:05;2.90;;;0.87;;
4732;SDS011;2380;53.668;10.008;2022-12-29T13:50:39;7.33;;;1.53;;
4732;SDS011;2380;53.668;10.008;2022-12-29T13:53:11;10.73;;;1.53;;
4732;SDS011;2380;53.668;10.008;2022-12-29T13:55:46;8.07;;;1.50;;
4732;SDS011;2380;53.668;10.008;2022-12-29T13:58:20;10.57;;;1.97;;
4732;SDS011;2380;53.668;10.008;2022-12-29T14:00:58;6.10;;;1.37;;
4732;SDS011;2380;53.668;10.008;2022-12-29T14:06:23;9.60;;;1.50;;
4732;SDS011;2380;53.668;10.008;2022-12-29T14:08:54;2.10;;;1.00;;
4732;SDS011;2380;53.668;10.008;2022-12-29T14:11:29;1.57;;;0.60;;
4732;SDS011;2380;53.668;10.008;2022-12-29T14:14:09;1.43;;;0.60;;
4732;SDS011;2380;53.668;10.008;2022-12-29T14:16:40;5.63;;;1.10;;
4732;SDS011;2380;53.668;10.008;2022-12-29T14:19:12;3.20;;;0.60;;
4732;SDS011;2380;53.668;10.008;2022-12-29T14:21:53;4.50;;;1.30;;
4732;SDS011;2380;53.668;10.008;2022-12-29T14:24:27;8.23;;;1.90;;
4732;SDS011;2380;53.668;10.008;2022-12-29T14:27:01;9.53;;;3.47;;
4732;SDS011;2380;53.668;10.008;2022-12-29T14:29:41;3.20;;;1.10;;
4732;SDS011;2380;53.668;10.008;2022-12-29T14:38:17;8.60;;;1.20;;
4732;SDS011;2380;53.668;10.008;2022-12-29T14:40:48;4.03;;;0.70;;
4732;SDS011;2380;53.668;10.008;2022-12-29T14:43:20;5.50;;;0.93;;
4732;SDS011;2380;53.668;10.008;2022-12-29T14:45:54;4.77;;;1.63;;
4732;SDS011;2380;53.668;10.008;2022-12-29T14:48:36;2.77;;;0.93;;
4732;SDS011;2380;53.668;10.008;2022-12-29T14:54:02;1.53;;;0.53;;
4732;SDS011;2380;53.668;10.008;2022-12-29T14:57:07;2.67;;;1.30;;
4732;SDS011;2380;53.668;10.008;2022-12-29T14:59:39;8.73;;;1.63;;
4732;SDS011;2380;53.668;10.008;2022-12-29T15:02:12;6.13;;;1.23;;
4732;SDS011;2380;53.668;10.008;2022-12-29T15:04:45;1.90;;;1.60;;
4732;SDS011;2380;53.668;10.008;2022-12-29T15:07:15;6.17;;;1.60;;
4732;SDS011;2380;53.668;10.008;2022-12-29T15:09:51;6.53;;;1.60;;
4732;SDS011;2380;53.668;10.008;2022-12-29T15:12:26;6.30;;;1.27;;
4732;SDS011;2380;53.668;10.008;2022-12-29T15:15:02;7.13;;;1.13;;
4732;SDS011;2380;53.668;10.008;2022-12-29T15:17:46;11.73;;;2.80;;
4732;SDS011;2380;53.668;10.008;2022-12-29T15:20:23;6.17;;;1.30;;
4732;SDS011;2380;53.668;10.008;2022-12-29T15:22:55;8.00;;;1.87;;
4732;SDS011;2380;53.668;10.008;2022-12-29T15:25:28;8.23;;;2.10;;
4732;SDS011;2380;53.668;10.008;2022-12-29T15:28:00;9.50;;;2.03;;
4732;SDS011;2380;53.668;10.008;2022-12-29T15:30:30;9.53;;;2.07;;
4732;SDS011;2380;53.668;10.008;2022-12-29T15:33:01;9.00;;;1.43;;
4732;SDS011;2380;53.668;10.008;2022-12-29T15:35:32;5.83;;;1.57;;
4732;SDS011;2380;53.668;10.008;2022-12-29T15:38:12;4.50;;;1.37;;
4732;SDS011;2380;53.668;10.008;2022-12-29T15:40:45;5.90;;;1.00;;
4732;SDS011;2380;53.668;10.008;2022-12-29T15:43:24;7.57;;;1.77;;
4732;SDS011;2380;53.668;10.008;2022-12-29T15:46:00;3.00;;;1.30;;
4732;SDS011;2380;53.668;10.008;2022-12-29T15:48:30;7.60;;;1.50;;
4732;SDS011;2380;53.668;10.008;2022-12-29T15:51:00;6.17;;;1.90;;
4732;SDS011;2380;53.668;10.008;2022-12-29T15:53:31;4.90;;;1.40;;
4732;SDS011;2380;53.668;10.008;2022-12-29T15:56:05;4.17;;;1.67;;
4732;SDS011;2380;53.668;10.008;2022-12-29T15:58:39;9.87;;;2.40;;